Astatula, Florida
Current Conditions -  °F | °C
As of 8:53 PM on Saturday 20 Dec 2014 (Local Time) from KLEE Reporting Station
Scattered Clouds Scattered Clouds  
Wind Chill: 65°   Ceiling: Unl
Heat Index: 65°   Visibility: 10mi
Dew Point: 60°   Wind: 8mph
Humidity: 84%   Direction: 60°ENE
Pressure: 30.1"   Gusts: NA
Location:  28.71°N, 81.73°W
Report Text: KLEE 210153Z AUTO 06007KT 10SM FEW095 SCT120 18/16 A3010 RMK AO2 SLP190 T01830156
Loading
Personal Weather Stations






























Interactive Weather Map New forecast layout! Learn more

10-Day Weather Forecast

Advertisements
Track Severe Weather on mobile